Archival Weather

Republic

Farmingdale, New York (KFRG)

Report from: Wednesday, January 24, 2024 6:53 PM EST
Current time: Monday, June 17, 2024 4:38 AM EDT

Current weather – Weather history – Daily summaries
Weather forecast

Present weatherMist
Temperature6.1°C (43.0°F)
Wind chill4.1°C (39.5°F)
Dew point6.1°C (43.0°F)
Winds 5 kts (2.6 m/s, 5.8 mph) South (170°)
Visibility2 mi. (3.2 km)
Clouds Few clouds 200 ft. (61 m)
Ceiling: Broken clouds 1,000 ft. (305 m)
Overcast 3,900 ft. (1,189 m)
Altimeter30.36 in.Hg (1028 mB)
Relative humidity100 %
Density altitude-1,444 ft. (-440 m)
Sea-level pressure102.8 kPa (1028 mB, 30.36 in.Hg)
Max temp last 6 hours6.7°C (44.1°F)
Min temp last 6 hours6.1°C (43.0°F)
Remarks Automated weather observing station with precipitation discriminator
Pressure falling more slowly
Flight conditions Instrument Meteorological Conditions
Raw dataKFRG 242353Z 17005KT 2SM BR FEW002 BKN010 OVC039 06/06 A3036 RMK AO2 SLP282 T00610061 10067 20061 56013
An error has occurred. This application may no longer respond until reloaded. Reload 🗙